sensor_id;sensor_type;location;lat;lon;timestamp;pressure;altitude;pressure_sealevel;temperature
74536;BMP180;63013;51.104;-115.370;2022-10-16T00:01:42;87744.80;;;24.50
74536;BMP180;63013;51.104;-115.370;2022-10-16T00:04:09;87750.40;;;24.50
74536;BMP180;63013;51.104;-115.370;2022-10-16T00:06:37;87754.20;;;24.50
74536;BMP180;63013;51.104;-115.370;2022-10-16T00:09:05;87760.80;;;24.50
74536;BMP180;63013;51.104;-115.370;2022-10-16T00:11:35;87765.00;;;24.50
74536;BMP180;63013;51.104;-115.370;2022-10-16T00:14:08;87760.60;;;24.50
74536;BMP180;63013;51.104;-115.370;2022-10-16T00:16:36;87761.60;;;24.50
74536;BMP180;63013;51.104;-115.370;2022-10-16T00:19:04;87757.80;;;24.50
74536;BMP180;63013;51.104;-115.370;2022-10-16T00:21:32;87765.60;;;24.50
74536;BMP180;63013;51.104;-115.370;2022-10-16T00:24:06;87767.20;;;24.50
74536;BMP180;63013;51.104;-115.370;2022-10-16T00:26:37;87763.60;;;24.50
74536;BMP180;63013;51.104;-115.370;2022-10-16T00:29:05;87771.00;;;24.50
74536;BMP180;63013;51.104;-115.370;2022-10-16T00:31:33;87770.40;;;24.50
74536;BMP180;63013;51.104;-115.370;2022-10-16T00:34:00;87771.40;;;24.50
74536;BMP180;63013;51.104;-115.370;2022-10-16T00:36:28;87772.20;;;24.50
74536;BMP180;63013;51.104;-115.370;2022-10-16T00:38:57;87770.80;;;24.50
74536;BMP180;63013;51.104;-115.370;2022-10-16T00:41:26;87771.00;;;24.50
74536;BMP180;63013;51.104;-115.370;2022-10-16T00:43:59;87771.80;;;24.50
74536;BMP180;63013;51.104;-115.370;2022-10-16T00:46:38;87774.00;;;24.50
74536;BMP180;63013;51.104;-115.370;2022-10-16T00:49:11;87771.40;;;24.48
74536;BMP180;63013;51.104;-115.370;2022-10-16T00:51:52;87773.60;;;24.40
74536;BMP180;63013;51.104;-115.370;2022-10-16T00:54:31;87776.80;;;24.40
74536;BMP180;63013;51.104;-115.370;2022-10-16T00:57:05;87779.60;;;24.40
74536;BMP180;63013;51.104;-115.370;2022-10-16T00:59:41;87777.20;;;24.40
74536;BMP180;63013;51.104;-115.370;2022-10-16T01:02:16;87782.00;;;24.40
74536;BMP180;63013;51.104;-115.370;2022-10-16T01:04:52;87782.80;;;24.40
74536;BMP180;63013;51.104;-115.370;2022-10-16T01:08:03;87782.20;;;24.40
74536;BMP180;63013;51.104;-115.370;2022-10-16T01:10:42;87783.00;;;24.40
74536;BMP180;63013;51.104;-115.370;2022-10-16T01:13:32;87783.60;;;24.40
74536;BMP180;63013;51.104;-115.370;2022-10-16T01:16:19;87792.20;;;24.40
74536;BMP180;63013;51.104;-115.370;2022-10-16T01:19:15;87801.60;;;24.40
74536;BMP180;63013;51.104;-115.370;2022-10-16T01:21:47;87802.40;;;24.40
74536;BMP180;63013;51.104;-115.370;2022-10-16T01:24:33;87801.00;;;24.30
74536;BMP180;63013;51.104;-115.370;2022-10-16T01:30:25;87806.00;;;24.30
74536;BMP180;63013;51.104;-115.370;2022-10-16T01:33:10;87808.60;;;24.30
74536;BMP180;63013;51.104;-115.370;2022-10-16T01:35:54;87809.80;;;24.30
74536;BMP180;63013;51.104;-115.370;2022-10-16T01:38:38;87809.40;;;24.30
74536;BMP180;63013;51.104;-115.370;2022-10-16T01:41:39;87808.00;;;24.30
74536;BMP180;63013;51.104;-115.370;2022-10-16T01:44:18;87812.40;;;24.22
74536;BMP180;63013;51.104;-115.370;2022-10-16T01:46:50;87814.40;;;24.20
74536;BMP180;63013;51.104;-115.370;2022-10-16T01:49:18;87814.60;;;24.20
74536;BMP180;63013;51.104;-115.370;2022-10-16T01:51:53;87813.00;;;24.20
74536;BMP180;63013;51.104;-115.370;2022-10-16T01:54:27;87813.00;;;24.20
74536;BMP180;63013;51.104;-115.370;2022-10-16T01:56:57;87813.20;;;24.20
74536;BMP180;63013;51.104;-115.370;2022-10-16T01:59:29;87814.80;;;24.20
74536;BMP180;63013;51.104;-115.370;2022-10-16T02:02:03;87813.40;;;24.20
74536;BMP180;63013;51.104;-115.370;2022-10-16T02:04:42;87814.80;;;24.20
74536;BMP180;63013;51.104;-115.370;2022-10-16T02:07:09;87817.80;;;24.12
74536;BMP180;63013;51.104;-115.370;2022-10-16T02:09:37;87814.80;;;24.10
74536;BMP180;63013;51.104;-115.370;2022-10-16T02:12:27;87822.40;;;24.10
74536;BMP180;63013;51.104;-115.370;2022-10-16T02:14:55;87826.20;;;24.10
74536;BMP180;63013;51.104;-115.370;2022-10-16T02:17:23;87833.60;;;24.10
74536;BMP180;63013;51.104;-115.370;2022-10-16T02:19:54;87833.60;;;24.10
74536;BMP180;63013;51.104;-115.370;2022-10-16T02:22:38;87834.00;;;24.10
74536;BMP180;63013;51.104;-115.370;2022-10-16T02:25:34;87838.20;;;24.08
74536;BMP180;63013;51.104;-115.370;2022-10-16T02:30:50;87852.00;;;24.00
74536;BMP180;63013;51.104;-115.370;2022-10-16T02:33:21;87849.60;;;24.00
74536;BMP180;63013;51.104;-115.370;2022-10-16T02:35:51;87851.20;;;24.00
74536;BMP180;63013;51.104;-115.370;2022-10-16T02:38:21;87860.00;;;24.00
74536;BMP180;63013;51.104;-115.370;2022-10-16T02:40:50;87863.00;;;24.00
74536;BMP180;63013;51.104;-115.370;2022-10-16T02:43:17;87867.80;;;23.98
74536;BMP180;63013;51.104;-115.370;2022-10-16T02:45:45;87870.40;;;23.96
74536;BMP180;63013;51.104;-115.370;2022-10-16T02:48:12;87870.80;;;23.90
74536;BMP180;63013;51.104;-115.370;2022-10-16T02:50:39;87868.60;;;23.90
74536;BMP180;63013;51.104;-115.370;2022-10-16T02:53:06;87871.00;;;23.90
74536;BMP180;63013;51.104;-115.370;2022-10-16T02:55:33;87873.00;;;23.90
74536;BMP180;63013;51.104;-115.370;2022-10-16T02:58:00;87876.00;;;23.90
74536;BMP180;63013;51.104;-115.370;2022-10-16T03:00:28;87873.60;;;23.90
74536;BMP180;63013;51.104;-115.370;2022-10-16T03:02:55;87877.80;;;23.90
74536;BMP180;63013;51.104;-115.370;2022-10-16T03:05:22;87882.60;;;23.90
74536;BMP180;63013;51.104;-115.370;2022-10-16T03:07:49;87878.80;;;23.90
74536;BMP180;63013;51.104;-115.370;2022-10-16T03:10:16;87883.40;;;23.90
74536;BMP180;63013;51.104;-115.370;2022-10-16T03:12:43;87882.40;;;23.86
74536;BMP180;63013;51.104;-115.370;2022-10-16T03:15:11;87886.20;;;23.80
74536;BMP180;63013;51.104;-115.370;2022-10-16T03:17:38;87888.40;;;23.80
74536;BMP180;63013;51.104;-115.370;2022-10-16T03:20:05;87891.20;;;23.80
74536;BMP180;63013;51.104;-115.370;2022-10-16T03:22:33;87896.40;;;23.80
74536;BMP180;63013;51.104;-115.370;2022-10-16T03:25:00;87899.60;;;23.80
74536;BMP180;63013;51.104;-115.370;2022-10-16T03:27:27;87902.40;;;23.80
74536;BMP180;63013;51.104;-115.370;2022-10-16T03:29:54;87903.80;;;23.80
74536;BMP180;63013;51.104;-115.370;2022-10-16T03:32:21;87905.80;;;23.78
74536;BMP180;63013;51.104;-115.370;2022-10-16T03:34:48;87903.60;;;23.72
74536;BMP180;63013;51.104;-115.370;2022-10-16T03:37:15;87899.60;;;23.70
74536;BMP180;63013;51.104;-115.370;2022-10-16T03:39:43;87903.40;;;23.70
74536;BMP180;63013;51.104;-115.370;2022-10-16T03:42:10;87904.60;;;23.70
74536;BMP180;63013;51.104;-115.370;2022-10-16T03:44:37;87904.00;;;23.70
74536;BMP180;63013;51.104;-115.370;2022-10-16T03:47:04;87910.00;;;23.70
74536;BMP180;63013;51.104;-115.370;2022-10-16T03:49:30;87909.20;;;23.70
74536;BMP180;63013;51.104;-115.370;2022-10-16T03:51:57;87908.20;;;23.70
74536;BMP180;63013;51.104;-115.370;2022-10-16T03:54:25;87906.40;;;23.70
74536;BMP180;63013;51.104;-115.370;2022-10-16T03:56:52;87906.60;;;23.70
74536;BMP180;63013;51.104;-115.370;2022-10-16T03:59:19;87911.00;;;23.68
74536;BMP180;63013;51.104;-115.370;2022-10-16T04:01:46;87914.40;;;23.62
74536;BMP180;63013;51.104;-115.370;2022-10-16T04:04:14;87912.80;;;23.60
74536;BMP180;63013;51.104;-115.370;2022-10-16T04:06:41;87917.60;;;23.60
74536;BMP180;63013;51.104;-115.370;2022-10-16T04:09:08;87916.40;;;23.60
74536;BMP180;63013;51.104;-115.370;2022-10-16T04:11:35;87917.80;;;23.60
74536;BMP180;63013;51.104;-115.370;2022-10-16T04:14:02;87923.40;;;23.60
74536;BMP180;63013;51.104;-115.370;2022-10-16T04:16:29;87923.60;;;23.60
74536;BMP180;63013;51.104;-115.370;2022-10-16T04:18:56;87924.20;;;23.56
74536;BMP180;63013;51.104;-115.370;2022-10-16T04:21:23;87923.00;;;23.50
74536;BMP180;63013;51.104;-115.370;2022-10-16T04:23:50;87923.60;;;23.50
74536;BMP180;63013;51.104;-115.370;2022-10-16T04:26:17;87923.60;;;23.50
74536;BMP180;63013;51.104;-115.370;2022-10-16T04:28:44;87923.60;;;23.50
74536;BMP180;63013;51.104;-115.370;2022-10-16T04:31:12;87927.40;;;23.50
74536;BMP180;63013;51.104;-115.370;2022-10-16T04:33:38;87927.00;;;23.50
74536;BMP180;63013;51.104;-115.370;2022-10-16T04:36:09;87927.80;;;23.50
74536;BMP180;63013;51.104;-115.370;2022-10-16T04:38:36;87929.40;;;23.50
74536;BMP180;63013;51.104;-115.370;2022-10-16T04:41:04;87932.60;;;23.40
74536;BMP180;63013;51.104;-115.370;2022-10-16T04:43:32;87935.40;;;23.40
74536;BMP180;63013;51.104;-115.370;2022-10-16T04:45:59;87937.60;;;23.40
74536;BMP180;63013;51.104;-115.370;2022-10-16T04:48:27;87937.20;;;23.40
74536;BMP180;63013;51.104;-115.370;2022-10-16T04:50:54;87943.80;;;23.40
74536;BMP180;63013;51.104;-115.370;2022-10-16T04:53:21;87936.60;;;23.40
74536;BMP180;63013;51.104;-115.370;2022-10-16T04:55:49;87932.20;;;23.34
74536;BMP180;63013;51.104;-115.370;2022-10-16T04:58:17;87932.40;;;23.32
74536;BMP180;63013;51.104;-115.370;2022-10-16T05:00:45;87934.20;;;23.30
74536;BMP180;63013;51.104;-115.370;2022-10-16T05:03:13;87936.00;;;23.30
74536;BMP180;63013;51.104;-115.370;2022-10-16T05:05:44;87938.00;;;23.30
74536;BMP180;63013;51.104;-115.370;2022-10-16T05:08:13;87940.00;;;23.30
74536;BMP180;63013;51.104;-115.370;2022-10-16T05:10:45;87936.00;;;23.30
74536;BMP180;63013;51.104;-115.370;2022-10-16T05:13:12;87936.00;;;23.24
74536;BMP180;63013;51.104;-115.370;2022-10-16T05:15:39;87933.00;;;23.20
74536;BMP180;63013;51.104;-115.370;2022-10-16T05:18:07;87934.20;;;23.20
74536;BMP180;63013;51.104;-115.370;2022-10-16T05:20:34;87933.60;;;23.20
74536;BMP180;63013;51.104;-115.370;2022-10-16T05:23:01;87933.20;;;23.20
74536;BMP180;63013;51.104;-115.370;2022-10-16T05:25:27;87933.00;;;23.20
74536;BMP180;63013;51.104;-115.370;2022-10-16T05:27:54;87933.20;;;23.20
74536;BMP180;63013;51.104;-115.370;2022-10-16T05:30:22;87935.80;;;23.20
74536;BMP180;63013;51.104;-115.370;2022-10-16T05:32:50;87934.60;;;23.20
74536;BMP180;63013;51.104;-115.370;2022-10-16T05:35:19;87939.80;;;23.16
74536;BMP180;63013;51.104;-115.370;2022-10-16T05:37:47;87942.60;;;23.10
74536;BMP180;63013;51.104;-115.370;2022-10-16T05:40:15;87938.40;;;23.10
74536;BMP180;63013;51.104;-115.370;2022-10-16T05:42:43;87941.20;;;23.10
74536;BMP180;63013;51.104;-115.370;2022-10-16T05:45:11;87940.20;;;23.10
74536;BMP180;63013;51.104;-115.370;2022-10-16T05:47:39;87939.40;;;23.10
74536;BMP180;63013;51.104;-115.370;2022-10-16T05:50:07;87945.20;;;23.10
74536;BMP180;63013;51.104;-115.370;2022-10-16T05:52:34;87948.00;;;23.10
74536;BMP180;63013;51.104;-115.370;2022-10-16T05:55:01;87949.20;;;23.04
74536;BMP180;63013;51.104;-115.370;2022-10-16T05:57:28;87950.80;;;23.02
74536;BMP180;63013;51.104;-115.370;2022-10-16T05:59:56;87951.40;;;23.00
74536;BMP180;63013;51.104;-115.370;2022-10-16T06:02:23;87953.60;;;23.00
74536;BMP180;63013;51.104;-115.370;2022-10-16T06:04:52;87956.80;;;23.00
74536;BMP180;63013;51.104;-115.370;2022-10-16T06:07:23;87960.20;;;23.00
74536;BMP180;63013;51.104;-115.370;2022-10-16T06:09:54;87963.60;;;23.00
74536;BMP180;63013;51.104;-115.370;2022-10-16T06:12:21;87960.80;;;23.00
74536;BMP180;63013;51.104;-115.370;2022-10-16T06:14:48;87965.80;;;22.98
74536;BMP180;63013;51.104;-115.370;2022-10-16T06:17:15;87968.80;;;22.94
74536;BMP180;63013;51.104;-115.370;2022-10-16T06:19:42;87968.60;;;22.90
74536;BMP180;63013;51.104;-115.370;2022-10-16T06:22:09;87971.40;;;22.90
74536;BMP180;63013;51.104;-115.370;2022-10-16T06:24:36;87970.60;;;22.90
74536;BMP180;63013;51.104;-115.370;2022-10-16T06:27:04;87976.40;;;22.90
74536;BMP180;63013;51.104;-115.370;2022-10-16T06:29:31;87977.60;;;22.90
74536;BMP180;63013;51.104;-115.370;2022-10-16T06:31:59;87980.00;;;22.90
74536;BMP180;63013;51.104;-115.370;2022-10-16T06:34:26;87979.20;;;22.90
74536;BMP180;63013;51.104;-115.370;2022-10-16T06:36:53;87984.00;;;22.80
74536;BMP180;63013;51.104;-115.370;2022-10-16T06:39:20;87988.60;;;22.80
74536;BMP180;63013;51.104;-115.370;2022-10-16T06:41:47;87991.20;;;22.80
74536;BMP180;63013;51.104;-115.370;2022-10-16T06:44:14;87988.40;;;22.80
74536;BMP180;63013;51.104;-115.370;2022-10-16T06:46:41;87990.60;;;22.80
74536;BMP180;63013;51.104;-115.370;2022-10-16T06:49:09;87989.40;;;22.80
74536;BMP180;63013;51.104;-115.370;2022-10-16T06:51:36;87995.20;;;22.80
74536;BMP180;63013;51.104;-115.370;2022-10-16T06:54:07;87992.80;;;22.70
74536;BMP180;63013;51.104;-115.370;2022-10-16T06:56:35;87994.80;;;22.70
74536;BMP180;63013;51.104;-115.370;2022-10-16T06:59:03;87994.80;;;22.70
74536;BMP180;63013;51.104;-115.370;2022-10-16T07:01:31;87994.20;;;22.70
74536;BMP180;63013;51.104;-115.370;2022-10-16T07:04:00;87991.00;;;22.70
74536;BMP180;63013;51.104;-115.370;2022-10-16T07:06:31;87994.00;;;22.70
74536;BMP180;63013;51.104;-115.370;2022-10-16T07:09:04;87989.80;;;22.68
74536;BMP180;63013;51.104;-115.370;2022-10-16T07:11:32;87992.40;;;22.62
74536;BMP180;63013;51.104;-115.370;2022-10-16T07:13:59;87991.60;;;22.60
74536;BMP180;63013;51.104;-115.370;2022-10-16T07:16:30;87996.80;;;22.60
74536;BMP180;63013;51.104;-115.370;2022-10-16T07:19:02;87998.20;;;22.60
74536;BMP180;63013;51.104;-115.370;2022-10-16T07:21:33;88000.40;;;22.60
74536;BMP180;63013;51.104;-115.370;2022-10-16T07:24:02;87999.00;;;22.60
74536;BMP180;63013;51.104;-115.370;2022-10-16T07:26:32;88003.40;;;22.60
74536;BMP180;63013;51.104;-115.370;2022-10-16T07:29:00;88003.80;;;22.58
74536;BMP180;63013;51.104;-115.370;2022-10-16T07:31:28;87999.60;;;22.52
74536;BMP180;63013;51.104;-115.370;2022-10-16T07:33:58;88002.40;;;22.50
74536;BMP180;63013;51.104;-115.370;2022-10-16T07:36:26;88003.00;;;22.50
74536;BMP180;63013;51.104;-115.370;2022-10-16T07:38:53;87996.00;;;22.50
74536;BMP180;63013;51.104;-115.370;2022-10-16T07:41:20;87998.80;;;22.50
74536;BMP180;63013;51.104;-115.370;2022-10-16T07:43:51;88000.20;;;22.50
74536;BMP180;63013;51.104;-115.370;2022-10-16T07:46:20;87999.20;;;22.50
74536;BMP180;63013;51.104;-115.370;2022-10-16T07:48:48;87997.20;;;22.48
74536;BMP180;63013;51.104;-115.370;2022-10-16T07:51:23;87993.20;;;22.44
74536;BMP180;63013;51.104;-115.370;2022-10-16T07:53:52;87991.00;;;22.40
74536;BMP180;63013;51.104;-115.370;2022-10-16T07:56:21;87990.20;;;22.40
74536;BMP180;63013;51.104;-115.370;2022-10-16T07:58:49;87987.60;;;22.40
74536;BMP180;63013;51.104;-115.370;2022-10-16T08:01:18;87991.00;;;22.40
74536;BMP180;63013;51.104;-115.370;2022-10-16T08:03:47;87986.40;;;22.40
74536;BMP180;63013;51.104;-115.370;2022-10-16T08:06:15;87989.20;;;22.40
74536;BMP180;63013;51.104;-115.370;2022-10-16T08:08:42;87989.20;;;22.38
74536;BMP180;63013;51.104;-115.370;2022-10-16T08:11:09;87989.80;;;22.32
74536;BMP180;63013;51.104;-115.370;2022-10-16T08:13:37;87993.20;;;22.30
74536;BMP180;63013;51.104;-115.370;2022-10-16T08:16:04;87997.80;;;22.30
74536;BMP180;63013;51.104;-115.370;2022-10-16T08:18:39;87993.60;;;22.30
74536;BMP180;63013;51.104;-115.370;2022-10-16T08:21:12;87994.60;;;22.30
74536;BMP180;63013;51.104;-115.370;2022-10-16T08:23:40;87999.60;;;22.30
74536;BMP180;63013;51.104;-115.370;2022-10-16T08:26:08;87997.40;;;22.24
74536;BMP180;63013;51.104;-115.370;2022-10-16T08:28:37;88003.60;;;22.24
74536;BMP180;63013;51.104;-115.370;2022-10-16T08:31:15;87999.60;;;22.20
74536;BMP180;63013;51.104;-115.370;2022-10-16T08:33:44;88003.20;;;22.20
74536;BMP180;63013;51.104;-115.370;2022-10-16T08:36:13;88005.00;;;22.20
74536;BMP180;63013;51.104;-115.370;2022-10-16T08:38:40;88005.40;;;22.20
74536;BMP180;63013;51.104;-115.370;2022-10-16T08:41:22;88004.00;;;22.20
74536;BMP180;63013;51.104;-115.370;2022-10-16T08:44:30;88007.40;;;22.20
74536;BMP180;63013;51.104;-115.370;2022-10-16T08:50:09;88009.60;;;22.10
74536;BMP180;63013;51.104;-115.370;2022-10-16T08:52:41;88008.60;;;22.10
74536;BMP180;63013;51.104;-115.370;2022-10-16T08:55:33;88008.40;;;22.10
74536;BMP180;63013;51.104;-115.370;2022-10-16T08:58:01;88004.40;;;22.10
74536;BMP180;63013;51.104;-115.370;2022-10-16T09:00:29;88011.20;;;22.10
74536;BMP180;63013;51.104;-115.370;2022-10-16T09:03:17;88011.40;;;22.08
74536;BMP180;63013;51.104;-115.370;2022-10-16T09:06:25;88008.60;;;22.00
74536;BMP180;63013;51.104;-115.370;2022-10-16T09:17:39;88016.80;;;22.00
74536;BMP180;63013;51.104;-115.370;2022-10-16T09:23:16;88010.80;;;21.90
74536;BMP180;63013;51.104;-115.370;2022-10-16T09:25:47;88013.60;;;21.90
74536;BMP180;63013;51.104;-115.370;2022-10-16T09:28:17;88007.80;;;21.90
74536;BMP180;63013;51.104;-115.370;2022-10-16T09:30:46;88011.80;;;21.90
74536;BMP180;63013;51.104;-115.370;2022-10-16T09:33:20;88007.40;;;21.90
74536;BMP180;63013;51.104;-115.370;2022-10-16T09:35:55;88008.00;;;21.90
74536;BMP180;63013;51.104;-115.370;2022-10-16T09:38:42;88011.00;;;21.88
74536;BMP180;63013;51.104;-115.370;2022-10-16T09:41:21;88010.60;;;21.80
74536;BMP180;63013;51.104;-115.370;2022-10-16T09:44:02;88009.40;;;21.80
74536;BMP180;63013;51.104;-115.370;2022-10-16T09:46:36;88007.40;;;21.80
74536;BMP180;63013;51.104;-115.370;2022-10-16T09:49:24;88001.80;;;21.80
74536;BMP180;63013;51.104;-115.370;2022-10-16T09:52:05;88002.60;;;21.80
74536;BMP180;63013;51.104;-115.370;2022-10-16T09:54:33;88003.00;;;21.80
74536;BMP180;63013;51.104;-115.370;2022-10-16T09:57:13;88002.40;;;21.76
74536;BMP180;63013;51.104;-115.370;2022-10-16T09:59:49;87999.00;;;21.70
74536;BMP180;63013;51.104;-115.370;2022-10-16T10:04:54;87998.00;;;21.70
74536;BMP180;63013;51.104;-115.370;2022-10-16T10:07:31;87998.80;;;21.70
74536;BMP180;63013;51.104;-115.370;2022-10-16T10:10:03;88002.40;;;21.70
74536;BMP180;63013;51.104;-115.370;2022-10-16T10:12:35;88001.40;;;21.70
74536;BMP180;63013;51.104;-115.370;2022-10-16T10:15:15;87997.80;;;21.70
74536;BMP180;63013;51.104;-115.370;2022-10-16T10:17:56;87996.00;;;21.64
74536;BMP180;63013;51.104;-115.370;2022-10-16T10:20:35;87999.40;;;21.60
74536;BMP180;63013;51.104;-115.370;2022-10-16T10:23:37;87999.00;;;21.60
74536;BMP180;63013;51.104;-115.370;2022-10-16T10:26:18;87998.80;;;21.60
74536;BMP180;63013;51.104;-115.370;2022-10-16T10:29:01;87997.60;;;21.60
74536;BMP180;63013;51.104;-115.370;2022-10-16T10:46:05;87981.00;;;21.50
74536;BMP180;63013;51.104;-115.370;2022-10-16T10:49:15;87983.00;;;21.50
74536;BMP180;63013;51.104;-115.370;2022-10-16T10:55:28;87978.60;;;21.48
74536;BMP180;63013;51.104;-115.370;2022-10-16T11:04:21;87978.80;;;21.40
74536;BMP180;63013;51.104;-115.370;2022-10-16T11:07:04;87986.20;;;21.40
74536;BMP180;63013;51.104;-115.370;2022-10-16T11:10:20;87979.20;;;21.40
74536;BMP180;63013;51.104;-115.370;2022-10-16T11:12:57;87981.80;;;21.40
74536;BMP180;63013;51.104;-115.370;2022-10-16T11:15:34;87978.20;;;21.40
74536;BMP180;63013;51.104;-115.370;2022-10-16T11:18:21;87975.20;;;21.38
74536;BMP180;63013;51.104;-115.370;2022-10-16T11:21:04;87975.20;;;21.34
74536;BMP180;63013;51.104;-115.370;2022-10-16T11:26:20;87971.40;;;21.30
74536;BMP180;63013;51.104;-115.370;2022-10-16T11:28:54;87971.80;;;21.30
74536;BMP180;63013;51.104;-115.370;2022-10-16T11:34:29;87966.20;;;21.30
74536;BMP180;63013;51.104;-115.370;2022-10-16T11:37:19;87964.60;;;21.28
74536;BMP180;63013;51.104;-115.370;2022-10-16T11:39:50;87970.40;;;21.20
74536;BMP180;63013;51.104;-115.370;2022-10-16T11:42:34;87964.20;;;21.20
74536;BMP180;63013;51.104;-115.370;2022-10-16T11:45:43;87957.40;;;21.20
74536;BMP180;63013;51.104;-115.370;2022-10-16T11:57:26;87956.40;;;21.12
74536;BMP180;63013;51.104;-115.370;2022-10-16T12:08:15;87959.80;;;21.10
74536;BMP180;63013;51.104;-115.370;2022-10-16T12:10:46;87961.00;;;21.10
74536;BMP180;63013;51.104;-115.370;2022-10-16T12:13:34;87962.40;;;21.10
74536;BMP180;63013;51.104;-115.370;2022-10-16T12:16:22;87958.80;;;21.08
74536;BMP180;63013;51.104;-115.370;2022-10-16T12:19:13;87949.80;;;21.00
74536;BMP180;63013;51.104;-115.370;2022-10-16T12:21:42;87953.60;;;21.00
74536;BMP180;63013;51.104;-115.370;2022-10-16T12:24:39;87956.80;;;21.00
74536;BMP180;63013;51.104;-115.370;2022-10-16T12:27:31;87953.20;;;21.00
74536;BMP180;63013;51.104;-115.370;2022-10-16T12:30:05;87954.60;;;21.00
74536;BMP180;63013;51.104;-115.370;2022-10-16T12:32:36;87951.80;;;20.90
74536;BMP180;63013;51.104;-115.370;2022-10-16T12:35:17;87944.00;;;20.90
74536;BMP180;63013;51.104;-115.370;2022-10-16T12:37:45;87952.60;;;20.90
74536;BMP180;63013;51.104;-115.370;2022-10-16T12:42:51;87952.20;;;20.90
74536;BMP180;63013;51.104;-115.370;2022-10-16T12:45:33;87955.80;;;20.90
74536;BMP180;63013;51.104;-115.370;2022-10-16T12:48:04;87952.60;;;20.90
74536;BMP180;63013;51.104;-115.370;2022-10-16T12:50:36;87955.80;;;20.90
74536;BMP180;63013;51.104;-115.370;2022-10-16T12:53:25;87957.00;;;20.90
74536;BMP180;63013;51.104;-115.370;2022-10-16T13:08:30;87966.60;;;20.80
74536;BMP180;63013;51.104;-115.370;2022-10-16T13:11:11;87968.60;;;20.80
74536;BMP180;63013;51.104;-115.370;2022-10-16T13:26:15;87946.40;;;20.70
74536;BMP180;63013;51.104;-115.370;2022-10-16T13:28:45;87949.80;;;20.70
74536;BMP180;63013;51.104;-115.370;2022-10-16T13:31:24;87953.40;;;20.70
74536;BMP180;63013;51.104;-115.370;2022-10-16T13:33:58;87943.00;;;20.70
74536;BMP180;63013;51.104;-115.370;2022-10-16T13:36:35;87944.80;;;20.70
74536;BMP180;63013;51.104;-115.370;2022-10-16T13:41:46;87933.20;;;20.62
74536;BMP180;63013;51.104;-115.370;2022-10-16T13:44:20;87932.60;;;20.60
74536;BMP180;63013;51.104;-115.370;2022-10-16T13:46:58;87930.20;;;20.60
74536;BMP180;63013;51.104;-115.370;2022-10-16T13:49:26;87929.00;;;20.60
74536;BMP180;63013;51.104;-115.370;2022-10-16T13:51:59;87933.00;;;20.60
74536;BMP180;63013;51.104;-115.370;2022-10-16T13:54:28;87938.20;;;20.60
74536;BMP180;63013;51.104;-115.370;2022-10-16T13:57:05;87929.20;;;20.60
74536;BMP180;63013;51.104;-115.370;2022-10-16T13:59:37;87930.20;;;20.60
74536;BMP180;63013;51.104;-115.370;2022-10-16T14:02:31;87931.20;;;20.58
74536;BMP180;63013;51.104;-115.370;2022-10-16T14:05:08;87931.20;;;20.50
74536;BMP180;63013;51.104;-115.370;2022-10-16T14:07:37;87930.20;;;20.50
74536;BMP180;63013;51.104;-115.370;2022-10-16T14:10:22;87926.00;;;20.50
74536;BMP180;63013;51.104;-115.370;2022-10-16T14:13:19;87926.20;;;20.50
74536;BMP180;63013;51.104;-115.370;2022-10-16T14:15:50;87915.20;;;20.50
74536;BMP180;63013;51.104;-115.370;2022-10-16T14:18:25;87918.80;;;20.50
74536;BMP180;63013;51.104;-115.370;2022-10-16T14:20:53;87923.40;;;20.44
74536;BMP180;63013;51.104;-115.370;2022-10-16T14:23:34;87926.60;;;20.40
74536;BMP180;63013;51.104;-115.370;2022-10-16T14:26:12;87930.40;;;20.50
74536;BMP180;63013;51.104;-115.370;2022-10-16T14:28:42;87935.40;;;20.50
74536;BMP180;63013;51.104;-115.370;2022-10-16T14:31:23;87942.60;;;20.50
74536;BMP180;63013;51.104;-115.370;2022-10-16T14:33:51;87936.60;;;20.50
74536;BMP180;63013;51.104;-115.370;2022-10-16T14:36:19;87932.20;;;20.58
74536;BMP180;63013;51.104;-115.370;2022-10-16T14:39:18;87937.40;;;20.60
74536;BMP180;63013;51.104;-115.370;2022-10-16T14:41:49;87942.20;;;20.66
74536;BMP180;63013;51.104;-115.370;2022-10-16T14:44:24;87942.40;;;20.70
74536;BMP180;63013;51.104;-115.370;2022-10-16T14:46:53;87945.00;;;20.70
74536;BMP180;63013;51.104;-115.370;2022-10-16T14:49:22;87944.40;;;20.80
74536;BMP180;63013;51.104;-115.370;2022-10-16T14:51:50;87949.40;;;20.80
74536;BMP180;63013;51.104;-115.370;2022-10-16T14:54:19;87941.40;;;20.80
74536;BMP180;63013;51.104;-115.370;2022-10-16T14:56:56;87945.40;;;20.90
74536;BMP180;63013;51.104;-115.370;2022-10-16T14:59:50;87946.20;;;20.90
74536;BMP180;63013;51.104;-115.370;2022-10-16T15:02:35;87954.20;;;21.00
74536;BMP180;63013;51.104;-115.370;2022-10-16T15:05:26;87951.00;;;21.00
74536;BMP180;63013;51.104;-115.370;2022-10-16T15:07:55;87952.20;;;21.10
74536;BMP180;63013;51.104;-115.370;2022-10-16T15:10:24;87959.20;;;21.18
74536;BMP180;63013;51.104;-115.370;2022-10-16T15:12:52;87963.00;;;21.22
74536;BMP180;63013;51.104;-115.370;2022-10-16T15:18:00;87972.00;;;21.30
74536;BMP180;63013;51.104;-115.370;2022-10-16T15:20:31;87978.40;;;21.32
74536;BMP180;63013;51.104;-115.370;2022-10-16T15:23:06;87977.40;;;21.36
74536;BMP180;63013;51.104;-115.370;2022-10-16T15:25:52;87987.80;;;21.30
74536;BMP180;63013;51.104;-115.370;2022-10-16T15:28:22;87994.00;;;21.30
74536;BMP180;63013;51.104;-115.370;2022-10-16T15:30:52;87995.40;;;21.30
74536;BMP180;63013;51.104;-115.370;2022-10-16T15:33:22;87994.80;;;21.30
74536;BMP180;63013;51.104;-115.370;2022-10-16T15:35:51;87998.00;;;21.30
74536;BMP180;63013;51.104;-115.370;2022-10-16T15:38:21;87993.40;;;21.30
74536;BMP180;63013;51.104;-115.370;2022-10-16T15:40:49;87992.20;;;21.32
74536;BMP180;63013;51.104;-115.370;2022-10-16T15:43:17;87983.00;;;21.40
74536;BMP180;63013;51.104;-115.370;2022-10-16T15:46:08;87988.00;;;21.40
74536;BMP180;63013;51.104;-115.370;2022-10-16T15:48:37;87979.00;;;21.40